Aviation Digital Data Service (ADDS)

Output produced by METARs form (1215 UTC 15 November 2018)
found at http://www.aviationweather.gov/metar/data/
 
TAF EGYP 151020Z 1512/1606 20020G30KT 9999 FEW030 
     PROB30 
     TEMPO 1512/1513 SCT024 
     PROB30 
     TEMPO 1512/1524 5000 SHRA 
     BECMG 1513/1516 23020G30KT 
     BECMG 1519/1522 27015KT 
     BECMG 1603/1606 28018G28KT 
     PROB40 
     TEMPO 1603/1606 SCT024